sensor_id;sensor_type;location;lat;lon;timestamp;temperature;humidity
66928;DHT22;59882;45.624;11.698;2024-03-08T00:01:55;9.50;81.80
66928;DHT22;59882;45.624;11.698;2024-03-08T00:04:21;9.50;81.90
66928;DHT22;59882;45.624;11.698;2024-03-08T00:06:47;9.40;81.50
66928;DHT22;59882;45.624;11.698;2024-03-08T00:09:13;9.40;81.60
66928;DHT22;59882;45.624;11.698;2024-03-08T00:11:39;9.40;81.60
66928;DHT22;59882;45.624;11.698;2024-03-08T00:14:05;9.40;81.40
66928;DHT22;59882;45.624;11.698;2024-03-08T00:16:32;9.40;81.20
66928;DHT22;59882;45.624;11.698;2024-03-08T00:18:59;9.50;81.10
66928;DHT22;59882;45.624;11.698;2024-03-08T00:21:24;9.40;81.10
66928;DHT22;59882;45.624;11.698;2024-03-08T00:23:52;9.40;81.10
66928;DHT22;59882;45.624;11.698;2024-03-08T00:26:20;9.40;81.10
66928;DHT22;59882;45.624;11.698;2024-03-08T00:28:48;9.40;81.10
66928;DHT22;59882;45.624;11.698;2024-03-08T00:31:14;9.40;81.20
66928;DHT22;59882;45.624;11.698;2024-03-08T00:33:42;9.40;81.20
66928;DHT22;59882;45.624;11.698;2024-03-08T00:36:08;9.40;81.20
66928;DHT22;59882;45.624;11.698;2024-03-08T00:38:33;9.40;81.10
66928;DHT22;59882;45.624;11.698;2024-03-08T00:40:59;9.40;81.00
66928;DHT22;59882;45.624;11.698;2024-03-08T00:43:25;9.40;81.00
66928;DHT22;59882;45.624;11.698;2024-03-08T00:45:51;9.40;81.00
66928;DHT22;59882;45.624;11.698;2024-03-08T00:48:17;9.40;81.10
66928;DHT22;59882;45.624;11.698;2024-03-08T00:50:43;9.40;81.20
66928;DHT22;59882;45.624;11.698;2024-03-08T00:53:13;9.40;81.20
66928;DHT22;59882;45.624;11.698;2024-03-08T00:55:39;9.40;81.10
66928;DHT22;59882;45.624;11.698;2024-03-08T00:58:05;9.40;81.00
66928;DHT22;59882;45.624;11.698;2024-03-08T01:00:30;9.40;81.10
66928;DHT22;59882;45.624;11.698;2024-03-08T01:02:56;9.40;81.20
66928;DHT22;59882;45.624;11.698;2024-03-08T01:05:22;9.40;81.20
66928;DHT22;59882;45.624;11.698;2024-03-08T01:07:51;9.40;81.30
66928;DHT22;59882;45.624;11.698;2024-03-08T01:10:17;9.40;81.30
66928;DHT22;59882;45.624;11.698;2024-03-08T01:12:43;9.30;81.50
66928;DHT22;59882;45.624;11.698;2024-03-08T01:15:11;9.30;81.60
66928;DHT22;59882;45.624;11.698;2024-03-08T01:17:37;9.30;81.70
66928;DHT22;59882;45.624;11.698;2024-03-08T01:20:04;9.30;81.40
66928;DHT22;59882;45.624;11.698;2024-03-08T01:22:30;9.30;81.60
66928;DHT22;59882;45.624;11.698;2024-03-08T01:24:56;9.30;81.70
66928;DHT22;59882;45.624;11.698;2024-03-08T01:27:22;9.30;81.70
66928;DHT22;59882;45.624;11.698;2024-03-08T01:29:48;9.30;81.60
66928;DHT22;59882;45.624;11.698;2024-03-08T01:32:14;9.30;81.60
66928;DHT22;59882;45.624;11.698;2024-03-08T01:34:40;9.30;81.50
66928;DHT22;59882;45.624;11.698;2024-03-08T01:37:06;9.30;81.60
66928;DHT22;59882;45.624;11.698;2024-03-08T01:39:32;9.30;81.50
66928;DHT22;59882;45.624;11.698;2024-03-08T01:41:58;9.30;81.30
66928;DHT22;59882;45.624;11.698;2024-03-08T01:44:23;9.30;81.20
66928;DHT22;59882;45.624;11.698;2024-03-08T01:46:50;9.40;81.10
66928;DHT22;59882;45.624;11.698;2024-03-08T01:49:18;9.30;81.00
66928;DHT22;59882;45.624;11.698;2024-03-08T01:51:46;9.30;81.00
66928;DHT22;59882;45.624;11.698;2024-03-08T01:54:12;9.30;81.00
66928;DHT22;59882;45.624;11.698;2024-03-08T01:56:40;9.30;81.10
66928;DHT22;59882;45.624;11.698;2024-03-08T01:59:06;9.30;81.20
66928;DHT22;59882;45.624;11.698;2024-03-08T02:01:33;9.20;81.20
66928;DHT22;59882;45.624;11.698;2024-03-08T02:03:59;9.20;81.10
66928;DHT22;59882;45.624;11.698;2024-03-08T02:06:25;9.20;80.90
66928;DHT22;59882;45.624;11.698;2024-03-08T02:08:51;9.20;80.80
66928;DHT22;59882;45.624;11.698;2024-03-08T02:11:17;9.20;80.60
66928;DHT22;59882;45.624;11.698;2024-03-08T02:13:44;9.20;80.70
66928;DHT22;59882;45.624;11.698;2024-03-08T02:16:09;9.20;80.80
66928;DHT22;59882;45.624;11.698;2024-03-08T02:18:35;9.20;80.60
66928;DHT22;59882;45.624;11.698;2024-03-08T02:21:03;9.30;80.50
66928;DHT22;59882;45.624;11.698;2024-03-08T02:23:29;9.20;80.50
66928;DHT22;59882;45.624;11.698;2024-03-08T02:25:56;9.30;80.40
66928;DHT22;59882;45.624;11.698;2024-03-08T02:28:22;9.30;80.20
66928;DHT22;59882;45.624;11.698;2024-03-08T02:30:49;9.30;80.30
66928;DHT22;59882;45.624;11.698;2024-03-08T02:33:17;9.20;80.10
66928;DHT22;59882;45.624;11.698;2024-03-08T02:35:47;9.20;80.00
66928;DHT22;59882;45.624;11.698;2024-03-08T02:38:13;9.20;80.10
66928;DHT22;59882;45.624;11.698;2024-03-08T02:40:43;9.20;80.20
66928;DHT22;59882;45.624;11.698;2024-03-08T02:43:12;9.20;80.20
66928;DHT22;59882;45.624;11.698;2024-03-08T02:45:40;9.20;79.90
66928;DHT22;59882;45.624;11.698;2024-03-08T02:48:07;9.20;79.80
66928;DHT22;59882;45.624;11.698;2024-03-08T02:50:33;9.10;80.00
66928;DHT22;59882;45.624;11.698;2024-03-08T02:53:00;9.10;80.20
66928;DHT22;59882;45.624;11.698;2024-03-08T02:55:26;9.10;80.20
66928;DHT22;59882;45.624;11.698;2024-03-08T02:57:52;9.20;80.10
66928;DHT22;59882;45.624;11.698;2024-03-08T03:00:20;9.10;79.90
66928;DHT22;59882;45.624;11.698;2024-03-08T03:02:47;9.10;79.90
66928;DHT22;59882;45.624;11.698;2024-03-08T03:05:12;9.10;79.60
66928;DHT22;59882;45.624;11.698;2024-03-08T03:07:38;9.10;79.50
66928;DHT22;59882;45.624;11.698;2024-03-08T03:10:04;9.10;79.50
66928;DHT22;59882;45.624;11.698;2024-03-08T03:12:31;9.10;79.60
66928;DHT22;59882;45.624;11.698;2024-03-08T03:14:57;9.10;79.70
66928;DHT22;59882;45.624;11.698;2024-03-08T03:17:23;9.10;79.90
66928;DHT22;59882;45.624;11.698;2024-03-08T03:19:50;9.00;80.10
66928;DHT22;59882;45.624;11.698;2024-03-08T03:22:17;9.00;80.50
66928;DHT22;59882;45.624;11.698;2024-03-08T03:24:44;9.10;80.60
66928;DHT22;59882;45.624;11.698;2024-03-08T03:27:09;9.00;80.70
66928;DHT22;59882;45.624;11.698;2024-03-08T03:29:41;9.00;80.40
66928;DHT22;59882;45.624;11.698;2024-03-08T03:32:11;8.90;80.80
66928;DHT22;59882;45.624;11.698;2024-03-08T03:34:38;8.90;81.00
66928;DHT22;59882;45.624;11.698;2024-03-08T03:37:04;8.80;81.10
66928;DHT22;59882;45.624;11.698;2024-03-08T03:39:30;8.80;81.20
66928;DHT22;59882;45.624;11.698;2024-03-08T03:42:00;8.80;81.30
66928;DHT22;59882;45.624;11.698;2024-03-08T03:44:28;8.80;81.00
66928;DHT22;59882;45.624;11.698;2024-03-08T03:46:53;8.80;81.40
66928;DHT22;59882;45.624;11.698;2024-03-08T03:49:19;8.80;81.40
66928;DHT22;59882;45.624;11.698;2024-03-08T03:51:45;8.70;81.40
66928;DHT22;59882;45.624;11.698;2024-03-08T03:54:11;8.60;81.60
66928;DHT22;59882;45.624;11.698;2024-03-08T03:56:38;8.60;81.80
66928;DHT22;59882;45.624;11.698;2024-03-08T03:59:05;8.60;81.90
66928;DHT22;59882;45.624;11.698;2024-03-08T04:01:32;8.60;81.80
66928;DHT22;59882;45.624;11.698;2024-03-08T04:03:58;8.60;81.40
66928;DHT22;59882;45.624;11.698;2024-03-08T04:06:24;8.70;81.40
66928;DHT22;59882;45.624;11.698;2024-03-08T04:08:49;8.70;81.50
66928;DHT22;59882;45.624;11.698;2024-03-08T04:11:15;8.70;81.50
66928;DHT22;59882;45.624;11.698;2024-03-08T04:13:43;8.70;81.40
66928;DHT22;59882;45.624;11.698;2024-03-08T04:16:08;8.70;81.10
66928;DHT22;59882;45.624;11.698;2024-03-08T04:18:36;8.60;80.90
66928;DHT22;59882;45.624;11.698;2024-03-08T04:21:04;8.60;80.70
66928;DHT22;59882;45.624;11.698;2024-03-08T04:23:34;8.60;80.30
66928;DHT22;59882;45.624;11.698;2024-03-08T04:26:02;8.60;80.70
66928;DHT22;59882;45.624;11.698;2024-03-08T04:28:28;8.50;80.50
66928;DHT22;59882;45.624;11.698;2024-03-08T04:30:54;8.50;80.60
66928;DHT22;59882;45.624;11.698;2024-03-08T04:33:20;8.40;80.50
66928;DHT22;59882;45.624;11.698;2024-03-08T04:35:47;8.30;80.80
66928;DHT22;59882;45.624;11.698;2024-03-08T04:38:12;8.30;81.00
66928;DHT22;59882;45.624;11.698;2024-03-08T04:40:38;8.20;81.10
66928;DHT22;59882;45.624;11.698;2024-03-08T04:43:04;8.20;81.30
66928;DHT22;59882;45.624;11.698;2024-03-08T04:45:30;8.20;81.50
66928;DHT22;59882;45.624;11.698;2024-03-08T04:47:56;8.20;81.10
66928;DHT22;59882;45.624;11.698;2024-03-08T04:50:22;8.30;81.30
66928;DHT22;59882;45.624;11.698;2024-03-08T04:52:47;8.20;81.10
66928;DHT22;59882;45.624;11.698;2024-03-08T04:55:14;8.30;81.10
66928;DHT22;59882;45.624;11.698;2024-03-08T04:57:39;8.30;80.90
66928;DHT22;59882;45.624;11.698;2024-03-08T05:00:07;8.30;81.00
66928;DHT22;59882;45.624;11.698;2024-03-08T05:02:37;8.30;80.90
66928;DHT22;59882;45.624;11.698;2024-03-08T05:05:05;8.30;80.90
66928;DHT22;59882;45.624;11.698;2024-03-08T05:07:31;8.30;80.80
66928;DHT22;59882;45.624;11.698;2024-03-08T05:09:58;8.40;81.00
66928;DHT22;59882;45.624;11.698;2024-03-08T05:12:24;8.40;81.10
66928;DHT22;59882;45.624;11.698;2024-03-08T05:14:50;8.40;81.20
66928;DHT22;59882;45.624;11.698;2024-03-08T05:17:16;8.40;81.40
66928;DHT22;59882;45.624;11.698;2024-03-08T05:19:42;8.40;81.40
66928;DHT22;59882;45.624;11.698;2024-03-08T05:22:09;8.40;81.70
66928;DHT22;59882;45.624;11.698;2024-03-08T05:24:34;8.40;81.90
66928;DHT22;59882;45.624;11.698;2024-03-08T05:27:00;8.40;82.00
66928;DHT22;59882;45.624;11.698;2024-03-08T05:29:26;8.40;82.20
66928;DHT22;59882;45.624;11.698;2024-03-08T05:31:52;8.40;82.20
66928;DHT22;59882;45.624;11.698;2024-03-08T05:34:18;8.40;82.40
66928;DHT22;59882;45.624;11.698;2024-03-08T05:36:45;8.40;82.40
66928;DHT22;59882;45.624;11.698;2024-03-08T05:39:15;8.40;82.50
66928;DHT22;59882;45.624;11.698;2024-03-08T05:41:41;8.40;82.60
66928;DHT22;59882;45.624;11.698;2024-03-08T05:44:07;8.40;82.80
66928;DHT22;59882;45.624;11.698;2024-03-08T05:46:33;8.40;82.70
66928;DHT22;59882;45.624;11.698;2024-03-08T05:48:59;8.40;83.00
66928;DHT22;59882;45.624;11.698;2024-03-08T05:51:25;8.40;82.80
66928;DHT22;59882;45.624;11.698;2024-03-08T05:53:53;8.40;82.90
66928;DHT22;59882;45.624;11.698;2024-03-08T05:56:19;8.30;83.20
66928;DHT22;59882;45.624;11.698;2024-03-08T05:58:45;8.30;83.10
66928;DHT22;59882;45.624;11.698;2024-03-08T06:01:11;8.30;83.10
66928;DHT22;59882;45.624;11.698;2024-03-08T06:03:38;8.30;83.10
66928;DHT22;59882;45.624;11.698;2024-03-08T06:06:13;8.20;83.10
66928;DHT22;59882;45.624;11.698;2024-03-08T06:08:39;8.20;83.40
66928;DHT22;59882;45.624;11.698;2024-03-08T06:11:06;8.20;83.50
66928;DHT22;59882;45.624;11.698;2024-03-08T06:13:34;8.20;83.50
66928;DHT22;59882;45.624;11.698;2024-03-08T06:16:00;8.20;83.70
66928;DHT22;59882;45.624;11.698;2024-03-08T06:18:32;8.20;83.80
66928;DHT22;59882;45.624;11.698;2024-03-08T06:20:58;8.30;83.70
66928;DHT22;59882;45.624;11.698;2024-03-08T06:23:23;8.30;83.60
66928;DHT22;59882;45.624;11.698;2024-03-08T06:25:49;8.30;83.40
66928;DHT22;59882;45.624;11.698;2024-03-08T06:28:15;8.30;83.30
66928;DHT22;59882;45.624;11.698;2024-03-08T06:30:41;8.30;83.20
66928;DHT22;59882;45.624;11.698;2024-03-08T06:33:06;8.20;82.90
66928;DHT22;59882;45.624;11.698;2024-03-08T06:35:36;8.20;83.10
66928;DHT22;59882;45.624;11.698;2024-03-08T06:38:04;8.30;83.00
66928;DHT22;59882;45.624;11.698;2024-03-08T06:40:29;8.20;82.80
66928;DHT22;59882;45.624;11.698;2024-03-08T06:42:55;8.20;83.00
66928;DHT22;59882;45.624;11.698;2024-03-08T06:45:21;8.20;82.90
66928;DHT22;59882;45.624;11.698;2024-03-08T06:47:48;8.30;82.90
66928;DHT22;59882;45.624;11.698;2024-03-08T06:50:14;8.20;82.70
66928;DHT22;59882;45.624;11.698;2024-03-08T06:52:41;8.30;82.80
66928;DHT22;59882;45.624;11.698;2024-03-08T06:55:08;8.30;82.80
66928;DHT22;59882;45.624;11.698;2024-03-08T06:57:38;8.30;82.70
66928;DHT22;59882;45.624;11.698;2024-03-08T07:00:06;8.30;82.50
66928;DHT22;59882;45.624;11.698;2024-03-08T07:02:35;8.20;82.20
66928;DHT22;59882;45.624;11.698;2024-03-08T07:05:01;8.20;82.40
66928;DHT22;59882;45.624;11.698;2024-03-08T07:07:27;8.20;82.50
66928;DHT22;59882;45.624;11.698;2024-03-08T07:09:52;8.10;82.70
66928;DHT22;59882;45.624;11.698;2024-03-08T07:12:18;8.20;82.70
66928;DHT22;59882;45.624;11.698;2024-03-08T07:14:46;8.20;82.70
66928;DHT22;59882;45.624;11.698;2024-03-08T07:17:12;8.20;82.60
66928;DHT22;59882;45.624;11.698;2024-03-08T07:19:38;8.30;82.50
66928;DHT22;59882;45.624;11.698;2024-03-08T07:22:04;8.20;82.20
66928;DHT22;59882;45.624;11.698;2024-03-08T07:24:37;8.20;82.50
66928;DHT22;59882;45.624;11.698;2024-03-08T07:27:25;8.20;82.50
66928;DHT22;59882;45.624;11.698;2024-03-08T07:29:51;8.20;82.00
66928;DHT22;59882;45.624;11.698;2024-03-08T07:32:17;8.30;82.20
66928;DHT22;59882;45.624;11.698;2024-03-08T07:34:47;8.20;82.10
66928;DHT22;59882;45.624;11.698;2024-03-08T07:37:14;8.20;82.30
66928;DHT22;59882;45.624;11.698;2024-03-08T07:39:40;8.20;82.40
66928;DHT22;59882;45.624;11.698;2024-03-08T07:42:05;8.20;82.40
66928;DHT22;59882;45.624;11.698;2024-03-08T07:44:31;8.30;82.40
66928;DHT22;59882;45.624;11.698;2024-03-08T07:46:58;8.30;82.20
66928;DHT22;59882;45.624;11.698;2024-03-08T07:49:24;8.30;81.90
66928;DHT22;59882;45.624;11.698;2024-03-08T07:51:50;8.30;81.60
66928;DHT22;59882;45.624;11.698;2024-03-08T07:54:15;8.40;81.50
66928;DHT22;59882;45.624;11.698;2024-03-08T07:56:41;8.40;80.80
66928;DHT22;59882;45.624;11.698;2024-03-08T07:59:07;8.30;80.80
66928;DHT22;59882;45.624;11.698;2024-03-08T08:01:33;8.30;80.80
66928;DHT22;59882;45.624;11.698;2024-03-08T08:03:59;8.30;80.40
66928;DHT22;59882;45.624;11.698;2024-03-08T08:06:27;8.30;80.30
66928;DHT22;59882;45.624;11.698;2024-03-08T08:08:52;8.30;80.60
66928;DHT22;59882;45.624;11.698;2024-03-08T08:11:19;8.30;80.50
66928;DHT22;59882;45.624;11.698;2024-03-08T08:13:45;8.30;80.10
66928;DHT22;59882;45.624;11.698;2024-03-08T08:16:11;8.40;80.10
66928;DHT22;59882;45.624;11.698;2024-03-08T08:18:38;8.40;80.20
66928;DHT22;59882;45.624;11.698;2024-03-08T08:21:05;8.40;80.10
66928;DHT22;59882;45.624;11.698;2024-03-08T08:23:33;8.40;80.00
66928;DHT22;59882;45.624;11.698;2024-03-08T08:25:59;8.40;79.70
66928;DHT22;59882;45.624;11.698;2024-03-08T08:28:26;8.40;79.50
66928;DHT22;59882;45.624;11.698;2024-03-08T08:30:51;8.40;79.40
66928;DHT22;59882;45.624;11.698;2024-03-08T08:33:17;8.30;79.50
66928;DHT22;59882;45.624;11.698;2024-03-08T08:35:43;8.40;79.70
66928;DHT22;59882;45.624;11.698;2024-03-08T08:38:08;8.30;79.50
66928;DHT22;59882;45.624;11.698;2024-03-08T08:40:34;8.30;79.50
66928;DHT22;59882;45.624;11.698;2024-03-08T08:43:01;8.30;79.50
66928;DHT22;59882;45.624;11.698;2024-03-08T08:45:30;8.30;79.30
66928;DHT22;59882;45.624;11.698;2024-03-08T08:47:56;8.30;79.40
66928;DHT22;59882;45.624;11.698;2024-03-08T08:50:22;8.30;79.10
66928;DHT22;59882;45.624;11.698;2024-03-08T08:52:52;8.30;79.40
66928;DHT22;59882;45.624;11.698;2024-03-08T08:55:18;8.30;79.50
66928;DHT22;59882;45.624;11.698;2024-03-08T08:57:47;8.30;79.50
66928;DHT22;59882;45.624;11.698;2024-03-08T09:00:20;8.30;79.70
66928;DHT22;59882;45.624;11.698;2024-03-08T09:02:47;8.30;79.60
66928;DHT22;59882;45.624;11.698;2024-03-08T09:05:13;8.30;79.50
66928;DHT22;59882;45.624;11.698;2024-03-08T09:07:43;8.20;79.40
66928;DHT22;59882;45.624;11.698;2024-03-08T09:10:10;8.20;79.60
66928;DHT22;59882;45.624;11.698;2024-03-08T09:12:40;8.30;79.80
66928;DHT22;59882;45.624;11.698;2024-03-08T09:15:06;8.20;79.30
66928;DHT22;59882;45.624;11.698;2024-03-08T09:17:36;8.20;79.50
66928;DHT22;59882;45.624;11.698;2024-03-08T09:20:06;8.20;79.50
66928;DHT22;59882;45.624;11.698;2024-03-08T09:22:32;8.10;79.10
66928;DHT22;59882;45.624;11.698;2024-03-08T09:24:58;8.10;79.00
66928;DHT22;59882;45.624;11.698;2024-03-08T09:27:23;8.10;79.10
66928;DHT22;59882;45.624;11.698;2024-03-08T09:29:49;8.10;78.90
66928;DHT22;59882;45.624;11.698;2024-03-08T09:32:15;8.10;78.80
66928;DHT22;59882;45.624;11.698;2024-03-08T09:34:40;8.10;79.10
66928;DHT22;59882;45.624;11.698;2024-03-08T09:37:06;8.10;79.30
66928;DHT22;59882;45.624;11.698;2024-03-08T09:39:32;8.10;79.50
66928;DHT22;59882;45.624;11.698;2024-03-08T09:41:58;8.10;80.00
66928;DHT22;59882;45.624;11.698;2024-03-08T09:44:24;8.10;79.50
66928;DHT22;59882;45.624;11.698;2024-03-08T09:46:50;8.10;79.90
66928;DHT22;59882;45.624;11.698;2024-03-08T09:49:19;8.20;79.70
66928;DHT22;59882;45.624;11.698;2024-03-08T09:51:45;8.10;79.40
66928;DHT22;59882;45.624;11.698;2024-03-08T09:54:11;8.20;79.50
66928;DHT22;59882;45.624;11.698;2024-03-08T09:56:39;8.20;79.30
66928;DHT22;59882;45.624;11.698;2024-03-08T09:59:10;8.30;78.70
66928;DHT22;59882;45.624;11.698;2024-03-08T10:01:54;8.20;78.60
66928;DHT22;59882;45.624;11.698;2024-03-08T10:04:24;8.20;78.60
66928;DHT22;59882;45.624;11.698;2024-03-08T10:06:51;8.30;78.90
66928;DHT22;59882;45.624;11.698;2024-03-08T10:09:17;8.20;78.40
66928;DHT22;59882;45.624;11.698;2024-03-08T10:11:45;8.20;78.70
66928;DHT22;59882;45.624;11.698;2024-03-08T10:14:11;8.20;78.80
66928;DHT22;59882;45.624;11.698;2024-03-08T10:16:38;8.20;78.80
66928;DHT22;59882;45.624;11.698;2024-03-08T10:19:05;8.30;78.60
66928;DHT22;59882;45.624;11.698;2024-03-08T10:21:32;8.30;78.10
66928;DHT22;59882;45.624;11.698;2024-03-08T10:23:58;8.30;78.20
66928;DHT22;59882;45.624;11.698;2024-03-08T10:26:24;8.40;78.60
66928;DHT22;59882;45.624;11.698;2024-03-08T10:28:51;8.40;78.40
66928;DHT22;59882;45.624;11.698;2024-03-08T10:31:19;8.50;77.90
66928;DHT22;59882;45.624;11.698;2024-03-08T10:33:45;8.50;78.00
66928;DHT22;59882;45.624;11.698;2024-03-08T10:36:12;8.60;77.70
66928;DHT22;59882;45.624;11.698;2024-03-08T10:38:41;8.60;77.90
66928;DHT22;59882;45.624;11.698;2024-03-08T10:41:10;8.70;77.50
66928;DHT22;59882;45.624;11.698;2024-03-08T10:44:10;8.60;76.80
66928;DHT22;59882;45.624;11.698;2024-03-08T10:47:02;8.60;76.90
66928;DHT22;59882;45.624;11.698;2024-03-08T10:49:37;8.60;76.00
66928;DHT22;59882;45.624;11.698;2024-03-08T10:52:04;8.50;75.80
66928;DHT22;59882;45.624;11.698;2024-03-08T10:54:34;8.50;75.80
66928;DHT22;59882;45.624;11.698;2024-03-08T10:57:05;8.40;76.20
66928;DHT22;59882;45.624;11.698;2024-03-08T10:59:32;8.40;76.30
66928;DHT22;59882;45.624;11.698;2024-03-08T11:01:59;8.40;75.90
66928;DHT22;59882;45.624;11.698;2024-03-08T11:04:25;8.40;75.00
66928;DHT22;59882;45.624;11.698;2024-03-08T11:06:52;8.40;76.00
66928;DHT22;59882;45.624;11.698;2024-03-08T11:09:30;8.40;76.10
66928;DHT22;59882;45.624;11.698;2024-03-08T11:12:18;8.40;75.70
66928;DHT22;59882;45.624;11.698;2024-03-08T11:14:48;8.40;76.30
66928;DHT22;59882;45.624;11.698;2024-03-08T11:20:14;8.50;76.70
66928;DHT22;59882;45.624;11.698;2024-03-08T11:33:27;8.50;76.80
66928;DHT22;59882;45.624;11.698;2024-03-08T11:38:40;8.50;77.00
66928;DHT22;59882;45.624;11.698;2024-03-08T11:41:06;8.50;77.30
66928;DHT22;59882;45.624;11.698;2024-03-08T11:43:33;8.50;77.20
66928;DHT22;59882;45.624;11.698;2024-03-08T11:46:08;8.50;77.80
66928;DHT22;59882;45.624;11.698;2024-03-08T11:48:34;8.50;78.10
66928;DHT22;59882;45.624;11.698;2024-03-08T11:51:01;8.60;78.50
66928;DHT22;59882;45.624;11.698;2024-03-08T11:53:28;8.60;79.20
66928;DHT22;59882;45.624;11.698;2024-03-08T11:55:54;8.60;79.10
66928;DHT22;59882;45.624;11.698;2024-03-08T11:58:19;8.60;78.60
66928;DHT22;59882;45.624;11.698;2024-03-08T12:00:45;8.60;79.20
66928;DHT22;59882;45.624;11.698;2024-03-08T12:03:11;8.60;79.00
66928;DHT22;59882;45.624;11.698;2024-03-08T12:05:37;8.60;79.20
66928;DHT22;59882;45.624;11.698;2024-03-08T12:08:04;8.60;79.40
66928;DHT22;59882;45.624;11.698;2024-03-08T12:10:33;8.60;79.80
66928;DHT22;59882;45.624;11.698;2024-03-08T12:13:00;8.60;79.70
66928;DHT22;59882;45.624;11.698;2024-03-08T12:15:28;8.60;79.60
66928;DHT22;59882;45.624;11.698;2024-03-08T12:17:54;8.60;80.00
66928;DHT22;59882;45.624;11.698;2024-03-08T12:20:23;8.60;80.30
66928;DHT22;59882;45.624;11.698;2024-03-08T12:22:49;8.60;80.20
66928;DHT22;59882;45.624;11.698;2024-03-08T12:25:19;8.60;80.30
66928;DHT22;59882;45.624;11.698;2024-03-08T12:27:46;8.60;80.10
66928;DHT22;59882;45.624;11.698;2024-03-08T12:30:26;8.60;80.00
66928;DHT22;59882;45.624;11.698;2024-03-08T12:32:57;8.70;80.20
66928;DHT22;59882;45.624;11.698;2024-03-08T12:35:32;8.70;80.10
66928;DHT22;59882;45.624;11.698;2024-03-08T12:37:59;8.70;80.10
66928;DHT22;59882;45.624;11.698;2024-03-08T12:40:30;8.70;80.10
66928;DHT22;59882;45.624;11.698;2024-03-08T12:43:00;8.70;80.10
66928;DHT22;59882;45.624;11.698;2024-03-08T12:45:27;8.60;80.10
66928;DHT22;59882;45.624;11.698;2024-03-08T12:47:53;8.70;80.40
66928;DHT22;59882;45.624;11.698;2024-03-08T12:50:21;8.70;80.70
66928;DHT22;59882;45.624;11.698;2024-03-08T12:52:47;8.70;80.70
66928;DHT22;59882;45.624;11.698;2024-03-08T12:55:14;8.70;80.80
66928;DHT22;59882;45.624;11.698;2024-03-08T12:57:42;8.70;80.50
66928;DHT22;59882;45.624;11.698;2024-03-08T13:00:08;8.70;80.30
66928;DHT22;59882;45.624;11.698;2024-03-08T13:02:39;8.80;80.20
66928;DHT22;59882;45.624;11.698;2024-03-08T13:05:05;8.70;80.20
66928;DHT22;59882;45.624;11.698;2024-03-08T13:07:31;8.70;80.20
66928;DHT22;59882;45.624;11.698;2024-03-08T13:09:57;8.80;80.10
66928;DHT22;59882;45.624;11.698;2024-03-08T13:12:25;8.80;79.60
66928;DHT22;59882;45.624;11.698;2024-03-08T13:14:51;8.80;79.30
66928;DHT22;59882;45.624;11.698;2024-03-08T13:17:16;8.80;78.90
66928;DHT22;59882;45.624;11.698;2024-03-08T13:19:44;8.90;78.80
66928;DHT22;59882;45.624;11.698;2024-03-08T13:22:10;8.90;78.50
66928;DHT22;59882;45.624;11.698;2024-03-08T13:24:39;8.90;78.60
66928;DHT22;59882;45.624;11.698;2024-03-08T13:27:08;8.90;78.60
66928;DHT22;59882;45.624;11.698;2024-03-08T13:29:48;8.90;78.30
66928;DHT22;59882;45.624;11.698;2024-03-08T13:32:17;9.00;78.20
66928;DHT22;59882;45.624;11.698;2024-03-08T13:34:43;8.90;77.70
66928;DHT22;59882;45.624;11.698;2024-03-08T13:37:11;8.90;77.40
66928;DHT22;59882;45.624;11.698;2024-03-08T13:39:37;8.90;77.30
66928;DHT22;59882;45.624;11.698;2024-03-08T13:42:10;8.90;77.70
66928;DHT22;59882;45.624;11.698;2024-03-08T13:44:39;8.90;77.60
66928;DHT22;59882;45.624;11.698;2024-03-08T13:47:04;8.90;77.70
66928;DHT22;59882;45.624;11.698;2024-03-08T13:49:30;9.00;77.90
66928;DHT22;59882;45.624;11.698;2024-03-08T13:51:56;9.00;77.80
66928;DHT22;59882;45.624;11.698;2024-03-08T13:54:24;9.00;77.70
66928;DHT22;59882;45.624;11.698;2024-03-08T13:56:50;9.00;77.70
66928;DHT22;59882;45.624;11.698;2024-03-08T13:59:19;8.90;77.00
66928;DHT22;59882;45.624;11.698;2024-03-08T14:01:48;8.90;77.50
66928;DHT22;59882;45.624;11.698;2024-03-08T14:04:14;8.90;77.30
66928;DHT22;59882;45.624;11.698;2024-03-08T14:06:42;8.90;77.30
66928;DHT22;59882;45.624;11.698;2024-03-08T14:09:11;8.90;77.50
66928;DHT22;59882;45.624;11.698;2024-03-08T14:11:42;9.00;77.60
66928;DHT22;59882;45.624;11.698;2024-03-08T14:14:10;9.00;77.70
66928;DHT22;59882;45.624;11.698;2024-03-08T14:16:36;9.10;77.80
66928;DHT22;59882;45.624;11.698;2024-03-08T14:19:02;9.10;77.90
66928;DHT22;59882;45.624;11.698;2024-03-08T14:21:31;9.10;77.70
66928;DHT22;59882;45.624;11.698;2024-03-08T14:23:57;9.10;77.50
66928;DHT22;59882;45.624;11.698;2024-03-08T14:26:22;9.10;77.30
66928;DHT22;59882;45.624;11.698;2024-03-08T14:28:48;9.10;77.40
66928;DHT22;59882;45.624;11.698;2024-03-08T14:31:17;9.10;77.50
66928;DHT22;59882;45.624;11.698;2024-03-08T14:33:44;9.10;77.00
66928;DHT22;59882;45.624;11.698;2024-03-08T14:36:14;9.10;76.90
66928;DHT22;59882;45.624;11.698;2024-03-08T14:38:42;9.00;76.80
66928;DHT22;59882;45.624;11.698;2024-03-08T14:41:08;9.00;76.80
66928;DHT22;59882;45.624;11.698;2024-03-08T14:43:34;9.00;76.90
66928;DHT22;59882;45.624;11.698;2024-03-08T14:46:00;9.10;77.00
66928;DHT22;59882;45.624;11.698;2024-03-08T14:48:25;9.00;76.60
66928;DHT22;59882;45.624;11.698;2024-03-08T14:50:51;9.00;76.70
66928;DHT22;59882;45.624;11.698;2024-03-08T14:53:17;9.00;76.70
66928;DHT22;59882;45.624;11.698;2024-03-08T14:55:44;8.90;76.30
66928;DHT22;59882;45.624;11.698;2024-03-08T14:58:13;8.90;76.50
66928;DHT22;59882;45.624;11.698;2024-03-08T15:00:39;8.90;76.10
66928;DHT22;59882;45.624;11.698;2024-03-08T15:03:07;8.90;76.10
66928;DHT22;59882;45.624;11.698;2024-03-08T15:05:35;9.00;76.30
66928;DHT22;59882;45.624;11.698;2024-03-08T15:08:06;8.90;76.30
66928;DHT22;59882;45.624;11.698;2024-03-08T15:10:35;8.90;76.50
66928;DHT22;59882;45.624;11.698;2024-03-08T15:13:01;8.90;76.50
66928;DHT22;59882;45.624;11.698;2024-03-08T15:15:29;8.90;76.40
66928;DHT22;59882;45.624;11.698;2024-03-08T15:17:55;8.90;76.50
66928;DHT22;59882;45.624;11.698;2024-03-08T15:20:23;8.90;76.40
66928;DHT22;59882;45.624;11.698;2024-03-08T15:22:50;8.80;76.40
66928;DHT22;59882;45.624;11.698;2024-03-08T15:25:17;8.80;76.30
66928;DHT22;59882;45.624;11.698;2024-03-08T15:27:48;8.80;76.50
66928;DHT22;59882;45.624;11.698;2024-03-08T15:30:14;8.80;76.50
66928;DHT22;59882;45.624;11.698;2024-03-08T15:32:48;8.80;76.50
66928;DHT22;59882;45.624;11.698;2024-03-08T15:35:16;8.80;76.40
66928;DHT22;59882;45.624;11.698;2024-03-08T15:37:42;8.80;76.50
66928;DHT22;59882;45.624;11.698;2024-03-08T15:40:12;8.80;76.70
66928;DHT22;59882;45.624;11.698;2024-03-08T15:43:07;8.80;76.70
66928;DHT22;59882;45.624;11.698;2024-03-08T15:45:33;8.80;76.80
66928;DHT22;59882;45.624;11.698;2024-03-08T15:48:02;8.80;76.90